sensor_id;sensor_type;location;lat;lon;timestamp;P1;durP1;ratioP1;P2;durP2;ratioP2
32639;SDS011;19049;52.524;11.468;2023-02-12T00:01:14;5.57;;;4.50;;
32639;SDS011;19049;52.524;11.468;2023-02-12T00:03:45;6.37;;;4.50;;
32639;SDS011;19049;52.524;11.468;2023-02-12T00:06:11;6.03;;;4.37;;
32639;SDS011;19049;52.524;11.468;2023-02-12T00:08:37;5.83;;;4.73;;
32639;SDS011;19049;52.524;11.468;2023-02-12T00:11:07;7.60;;;5.70;;
32639;SDS011;19049;52.524;11.468;2023-02-12T00:13:35;7.67;;;5.90;;
32639;SDS011;19049;52.524;11.468;2023-02-12T00:16:04;8.47;;;6.33;;
32639;SDS011;19049;52.524;11.468;2023-02-12T00:18:33;9.10;;;6.50;;
32639;SDS011;19049;52.524;11.468;2023-02-12T00:21:01;6.57;;;5.67;;
32639;SDS011;19049;52.524;11.468;2023-02-12T00:23:28;6.47;;;5.20;;
32639;SDS011;19049;52.524;11.468;2023-02-12T00:25:54;6.73;;;5.30;;
32639;SDS011;19049;52.524;11.468;2023-02-12T00:28:20;4.97;;;4.23;;
32639;SDS011;19049;52.524;11.468;2023-02-12T00:30:54;6.63;;;5.40;;
32639;SDS011;19049;52.524;11.468;2023-02-12T00:33:20;5.80;;;4.97;;
32639;SDS011;19049;52.524;11.468;2023-02-12T00:35:56;7.77;;;5.70;;
32639;SDS011;19049;52.524;11.468;2023-02-12T00:38:22;6.47;;;4.80;;
32639;SDS011;19049;52.524;11.468;2023-02-12T00:40:50;6.57;;;5.30;;
32639;SDS011;19049;52.524;11.468;2023-02-12T00:43:19;6.87;;;5.27;;
32639;SDS011;19049;52.524;11.468;2023-02-12T00:45:51;5.57;;;4.47;;
32639;SDS011;19049;52.524;11.468;2023-02-12T00:48:17;7.77;;;5.00;;
32639;SDS011;19049;52.524;11.468;2023-02-12T00:50:43;6.60;;;5.07;;
32639;SDS011;19049;52.524;11.468;2023-02-12T00:53:15;7.00;;;5.77;;
32639;SDS011;19049;52.524;11.468;2023-02-12T00:55:43;6.67;;;4.93;;
32639;SDS011;19049;52.524;11.468;2023-02-12T00:58:11;6.80;;;4.63;;
32639;SDS011;19049;52.524;11.468;2023-02-12T01:00:37;7.13;;;5.47;;
32639;SDS011;19049;52.524;11.468;2023-02-12T01:03:06;9.10;;;6.67;;
32639;SDS011;19049;52.524;11.468;2023-02-12T01:05:31;10.40;;;6.87;;
32639;SDS011;19049;52.524;11.468;2023-02-12T01:08:04;11.43;;;7.53;;
32639;SDS011;19049;52.524;11.468;2023-02-12T01:10:41;11.57;;;7.83;;
32639;SDS011;19049;52.524;11.468;2023-02-12T01:13:20;9.13;;;7.00;;
32639;SDS011;19049;52.524;11.468;2023-02-12T01:16:04;7.53;;;5.83;;
32639;SDS011;19049;52.524;11.468;2023-02-12T01:18:32;7.50;;;5.43;;
32639;SDS011;19049;52.524;11.468;2023-02-12T01:21:03;6.70;;;5.07;;
32639;SDS011;19049;52.524;11.468;2023-02-12T01:23:58;8.00;;;5.53;;
32639;SDS011;19049;52.524;11.468;2023-02-12T01:26:25;7.77;;;5.00;;
32639;SDS011;19049;52.524;11.468;2023-02-12T01:29:00;6.33;;;5.20;;
32639;SDS011;19049;52.524;11.468;2023-02-12T01:31:29;8.07;;;5.87;;
32639;SDS011;19049;52.524;11.468;2023-02-12T01:33:57;7.53;;;5.50;;
32639;SDS011;19049;52.524;11.468;2023-02-12T01:36:24;6.80;;;5.50;;
32639;SDS011;19049;52.524;11.468;2023-02-12T01:38:50;8.07;;;5.63;;
32639;SDS011;19049;52.524;11.468;2023-02-12T01:41:20;9.10;;;6.07;;
32639;SDS011;19049;52.524;11.468;2023-02-12T01:44:07;7.63;;;6.00;;
32639;SDS011;19049;52.524;11.468;2023-02-12T01:46:32;10.47;;;7.87;;
32639;SDS011;19049;52.524;11.468;2023-02-12T01:48:58;9.07;;;6.77;;
32639;SDS011;19049;52.524;11.468;2023-02-12T01:51:28;9.00;;;5.93;;
32639;SDS011;19049;52.524;11.468;2023-02-12T01:53:54;7.97;;;5.60;;
32639;SDS011;19049;52.524;11.468;2023-02-12T01:56:26;7.37;;;5.73;;
32639;SDS011;19049;52.524;11.468;2023-02-12T01:58:53;6.17;;;4.77;;
32639;SDS011;19049;52.524;11.468;2023-02-12T02:01:22;8.47;;;6.30;;
32639;SDS011;19049;52.524;11.468;2023-02-12T02:03:54;7.30;;;5.57;;
32639;SDS011;19049;52.524;11.468;2023-02-12T02:06:26;7.10;;;5.90;;
32639;SDS011;19049;52.524;11.468;2023-02-12T02:09:16;8.00;;;5.83;;
32639;SDS011;19049;52.524;11.468;2023-02-12T02:11:43;8.00;;;6.23;;
32639;SDS011;19049;52.524;11.468;2023-02-12T02:14:28;8.47;;;5.70;;
32639;SDS011;19049;52.524;11.468;2023-02-12T02:17:19;7.80;;;5.93;;
32639;SDS011;19049;52.524;11.468;2023-02-12T02:30:57;7.70;;;5.93;;
32639;SDS011;19049;52.524;11.468;2023-02-12T02:46:33;7.83;;;5.80;;
32639;SDS011;19049;52.524;11.468;2023-02-12T02:49:18;6.93;;;5.33;;
32639;SDS011;19049;52.524;11.468;2023-02-12T02:51:59;6.97;;;5.20;;
32639;SDS011;19049;52.524;11.468;2023-02-12T02:54:35;9.73;;;6.40;;
32639;SDS011;19049;52.524;11.468;2023-02-12T02:57:15;7.90;;;6.20;;
32639;SDS011;19049;52.524;11.468;2023-02-12T02:59:51;9.33;;;6.50;;
32639;SDS011;19049;52.524;11.468;2023-02-12T03:02:32;10.10;;;7.20;;
32639;SDS011;19049;52.524;11.468;2023-02-12T03:05:08;8.90;;;7.00;;
32639;SDS011;19049;52.524;11.468;2023-02-12T03:07:47;12.83;;;8.23;;
32639;SDS011;19049;52.524;11.468;2023-02-12T03:10:26;9.93;;;7.10;;
32639;SDS011;19049;52.524;11.468;2023-02-12T03:13:00;9.67;;;6.43;;
32639;SDS011;19049;52.524;11.468;2023-02-12T03:15:30;10.37;;;6.43;;
32639;SDS011;19049;52.524;11.468;2023-02-12T03:18:00;10.07;;;6.80;;
32639;SDS011;19049;52.524;11.468;2023-02-12T03:20:39;9.70;;;6.17;;
32639;SDS011;19049;52.524;11.468;2023-02-12T03:23:10;9.27;;;6.00;;
32639;SDS011;19049;52.524;11.468;2023-02-12T03:26:03;10.03;;;6.53;;
32639;SDS011;19049;52.524;11.468;2023-02-12T03:28:33;9.07;;;6.33;;
32639;SDS011;19049;52.524;11.468;2023-02-12T03:31:16;8.80;;;5.93;;
32639;SDS011;19049;52.524;11.468;2023-02-12T03:41:57;8.33;;;5.50;;
32639;SDS011;19049;52.524;11.468;2023-02-12T03:47:37;10.37;;;6.93;;
32639;SDS011;19049;52.524;11.468;2023-02-12T03:50:16;11.77;;;7.53;;
32639;SDS011;19049;52.524;11.468;2023-02-12T03:52:43;11.60;;;7.13;;
32639;SDS011;19049;52.524;11.468;2023-02-12T03:55:12;12.43;;;7.50;;
32639;SDS011;19049;52.524;11.468;2023-02-12T03:57:40;13.17;;;6.80;;
32639;SDS011;19049;52.524;11.468;2023-02-12T04:00:13;12.07;;;6.93;;
32639;SDS011;19049;52.524;11.468;2023-02-12T04:02:44;9.77;;;6.07;;
32639;SDS011;19049;52.524;11.468;2023-02-12T04:05:20;9.70;;;6.03;;
32639;SDS011;19049;52.524;11.468;2023-02-12T04:07:51;11.63;;;7.00;;
32639;SDS011;19049;52.524;11.468;2023-02-12T04:10:20;9.57;;;6.00;;
32639;SDS011;19049;52.524;11.468;2023-02-12T04:13:06;10.10;;;5.93;;
32639;SDS011;19049;52.524;11.468;2023-02-12T04:16:24;11.23;;;5.77;;
32639;SDS011;19049;52.524;11.468;2023-02-12T04:18:44;11.53;;;5.90;;
32639;SDS011;19049;52.524;11.468;2023-02-12T04:21:52;10.90;;;6.77;;
32639;SDS011;19049;52.524;11.468;2023-02-12T04:32:51;8.23;;;5.33;;
32639;SDS011;19049;52.524;11.468;2023-02-12T04:35:33;10.80;;;6.03;;
32639;SDS011;19049;52.524;11.468;2023-02-12T04:38:25;7.43;;;5.40;;
32639;SDS011;19049;52.524;11.468;2023-02-12T04:41:11;7.50;;;5.20;;
32639;SDS011;19049;52.524;11.468;2023-02-12T04:43:37;8.40;;;5.40;;
32639;SDS011;19049;52.524;11.468;2023-02-12T04:46:05;8.83;;;5.73;;
32639;SDS011;19049;52.524;11.468;2023-02-12T04:48:31;10.30;;;6.23;;
32639;SDS011;19049;52.524;11.468;2023-02-12T04:51:00;10.90;;;6.80;;
32639;SDS011;19049;52.524;11.468;2023-02-12T04:53:26;12.17;;;7.67;;
32639;SDS011;19049;52.524;11.468;2023-02-12T04:55:52;11.03;;;6.43;;
32639;SDS011;19049;52.524;11.468;2023-02-12T04:58:19;11.17;;;6.87;;
32639;SDS011;19049;52.524;11.468;2023-02-12T05:00:44;8.70;;;5.93;;
32639;SDS011;19049;52.524;11.468;2023-02-12T05:03:10;11.10;;;6.63;;
32639;SDS011;19049;52.524;11.468;2023-02-12T05:05:36;8.00;;;5.57;;
32639;SDS011;19049;52.524;11.468;2023-02-12T05:08:04;11.27;;;6.37;;
32639;SDS011;19049;52.524;11.468;2023-02-12T05:10:30;11.17;;;6.73;;
32639;SDS011;19049;52.524;11.468;2023-02-12T05:12:56;10.03;;;6.70;;
32639;SDS011;19049;52.524;11.468;2023-02-12T05:15:22;9.90;;;6.77;;
32639;SDS011;19049;52.524;11.468;2023-02-12T05:17:48;12.03;;;7.57;;
32639;SDS011;19049;52.524;11.468;2023-02-12T05:20:16;14.00;;;6.77;;
32639;SDS011;19049;52.524;11.468;2023-02-12T05:22:44;10.07;;;6.43;;
32639;SDS011;19049;52.524;11.468;2023-02-12T05:25:12;12.03;;;7.60;;
32639;SDS011;19049;52.524;11.468;2023-02-12T05:27:42;9.20;;;6.20;;
32639;SDS011;19049;52.524;11.468;2023-02-12T05:30:08;9.83;;;6.53;;
32639;SDS011;19049;52.524;11.468;2023-02-12T05:32:45;12.20;;;7.47;;
32639;SDS011;19049;52.524;11.468;2023-02-12T05:35:11;12.43;;;6.53;;
32639;SDS011;19049;52.524;11.468;2023-02-12T05:37:37;11.07;;;6.83;;
32639;SDS011;19049;52.524;11.468;2023-02-12T05:40:04;10.27;;;6.27;;
32639;SDS011;19049;52.524;11.468;2023-02-12T05:42:33;10.63;;;6.10;;
32639;SDS011;19049;52.524;11.468;2023-02-12T05:45:01;10.93;;;6.30;;
32639;SDS011;19049;52.524;11.468;2023-02-12T05:47:27;10.10;;;5.70;;
32639;SDS011;19049;52.524;11.468;2023-02-12T05:49:57;10.33;;;6.77;;
32639;SDS011;19049;52.524;11.468;2023-02-12T05:52:23;11.37;;;7.10;;
32639;SDS011;19049;52.524;11.468;2023-02-12T05:54:49;10.37;;;5.87;;
32639;SDS011;19049;52.524;11.468;2023-02-12T05:57:15;10.90;;;5.93;;
32639;SDS011;19049;52.524;11.468;2023-02-12T05:59:43;10.03;;;5.63;;
32639;SDS011;19049;52.524;11.468;2023-02-12T06:02:12;8.40;;;5.23;;
32639;SDS011;19049;52.524;11.468;2023-02-12T06:04:40;7.37;;;4.67;;
32639;SDS011;19049;52.524;11.468;2023-02-12T06:07:06;9.90;;;5.57;;
32639;SDS011;19049;52.524;11.468;2023-02-12T06:09:32;9.37;;;5.23;;
32639;SDS011;19049;52.524;11.468;2023-02-12T06:11:59;7.53;;;4.77;;
32639;SDS011;19049;52.524;11.468;2023-02-12T06:14:28;8.90;;;4.57;;
32639;SDS011;19049;52.524;11.468;2023-02-12T06:16:53;8.20;;;4.67;;
32639;SDS011;19049;52.524;11.468;2023-02-12T06:19:19;7.77;;;4.43;;
32639;SDS011;19049;52.524;11.468;2023-02-12T06:21:46;7.63;;;4.03;;
32639;SDS011;19049;52.524;11.468;2023-02-12T06:24:12;7.87;;;4.67;;
32639;SDS011;19049;52.524;11.468;2023-02-12T06:26:41;7.50;;;4.60;;
32639;SDS011;19049;52.524;11.468;2023-02-12T06:29:12;7.37;;;4.47;;
32639;SDS011;19049;52.524;11.468;2023-02-12T06:31:40;7.27;;;4.60;;
32639;SDS011;19049;52.524;11.468;2023-02-12T06:34:07;6.27;;;3.97;;
32639;SDS011;19049;52.524;11.468;2023-02-12T06:36:58;8.53;;;4.77;;
32639;SDS011;19049;52.524;11.468;2023-02-12T06:39:23;8.90;;;5.00;;
32639;SDS011;19049;52.524;11.468;2023-02-12T06:41:49;10.50;;;5.40;;
32639;SDS011;19049;52.524;11.468;2023-02-12T06:44:15;7.87;;;4.43;;
32639;SDS011;19049;52.524;11.468;2023-02-12T06:46:41;10.57;;;6.17;;
32639;SDS011;19049;52.524;11.468;2023-02-12T06:49:09;7.10;;;4.60;;
32639;SDS011;19049;52.524;11.468;2023-02-12T06:51:36;7.83;;;4.70;;
32639;SDS011;19049;52.524;11.468;2023-02-12T06:54:04;7.70;;;4.60;;
32639;SDS011;19049;52.524;11.468;2023-02-12T06:56:29;7.80;;;4.83;;
32639;SDS011;19049;52.524;11.468;2023-02-12T06:58:56;10.23;;;5.17;;
32639;SDS011;19049;52.524;11.468;2023-02-12T07:01:27;6.87;;;4.03;;
32639;SDS011;19049;52.524;11.468;2023-02-12T07:03:54;7.80;;;4.33;;
32639;SDS011;19049;52.524;11.468;2023-02-12T07:06:22;7.83;;;4.00;;
32639;SDS011;19049;52.524;11.468;2023-02-12T07:08:52;6.80;;;4.10;;
32639;SDS011;19049;52.524;11.468;2023-02-12T07:11:23;8.30;;;4.90;;
32639;SDS011;19049;52.524;11.468;2023-02-12T07:13:52;8.40;;;4.43;;
32639;SDS011;19049;52.524;11.468;2023-02-12T07:16:18;9.50;;;4.73;;
32639;SDS011;19049;52.524;11.468;2023-02-12T07:18:44;11.50;;;5.00;;
32639;SDS011;19049;52.524;11.468;2023-02-12T07:21:13;9.77;;;4.73;;
32639;SDS011;19049;52.524;11.468;2023-02-12T07:23:39;7.67;;;4.40;;
32639;SDS011;19049;52.524;11.468;2023-02-12T07:26:07;11.87;;;5.60;;
32639;SDS011;19049;52.524;11.468;2023-02-12T07:28:37;8.33;;;4.63;;
32639;SDS011;19049;52.524;11.468;2023-02-12T07:31:14;8.43;;;4.47;;
32639;SDS011;19049;52.524;11.468;2023-02-12T07:33:42;9.00;;;5.20;;
32639;SDS011;19049;52.524;11.468;2023-02-12T07:36:09;8.07;;;5.10;;
32639;SDS011;19049;52.524;11.468;2023-02-12T07:38:37;9.50;;;4.90;;
32639;SDS011;19049;52.524;11.468;2023-02-12T07:41:10;10.43;;;4.93;;
32639;SDS011;19049;52.524;11.468;2023-02-12T07:43:45;11.37;;;5.40;;
32639;SDS011;19049;52.524;11.468;2023-02-12T07:46:16;9.73;;;5.57;;
32639;SDS011;19049;52.524;11.468;2023-02-12T07:48:45;9.80;;;5.30;;
32639;SDS011;19049;52.524;11.468;2023-02-12T07:51:12;8.27;;;5.10;;
32639;SDS011;19049;52.524;11.468;2023-02-12T07:53:40;7.40;;;4.57;;
32639;SDS011;19049;52.524;11.468;2023-02-12T07:58:40;7.77;;;4.10;;
32639;SDS011;19049;52.524;11.468;2023-02-12T08:01:10;9.10;;;5.37;;
32639;SDS011;19049;52.524;11.468;2023-02-12T08:03:37;9.47;;;5.17;;
32639;SDS011;19049;52.524;11.468;2023-02-12T08:06:07;8.03;;;5.10;;
32639;SDS011;19049;52.524;11.468;2023-02-12T08:08:34;9.17;;;5.23;;
32639;SDS011;19049;52.524;11.468;2023-02-12T08:11:02;9.50;;;5.77;;
32639;SDS011;19049;52.524;11.468;2023-02-12T08:13:28;7.80;;;4.80;;
32639;SDS011;19049;52.524;11.468;2023-02-12T08:16:01;8.93;;;5.00;;
32639;SDS011;19049;52.524;11.468;2023-02-12T08:18:31;7.63;;;4.90;;
32639;SDS011;19049;52.524;11.468;2023-02-12T08:21:04;12.20;;;7.57;;
32639;SDS011;19049;52.524;11.468;2023-02-12T08:23:31;10.23;;;6.00;;
32639;SDS011;19049;52.524;11.468;2023-02-12T08:26:13;10.03;;;6.13;;
32639;SDS011;19049;52.524;11.468;2023-02-12T08:28:44;8.47;;;5.37;;
32639;SDS011;19049;52.524;11.468;2023-02-12T08:31:13;8.73;;;5.20;;
32639;SDS011;19049;52.524;11.468;2023-02-12T08:33:47;6.57;;;4.07;;
32639;SDS011;19049;52.524;11.468;2023-02-12T08:36:15;7.50;;;4.27;;
32639;SDS011;19049;52.524;11.468;2023-02-12T08:38:43;7.83;;;4.57;;
32639;SDS011;19049;52.524;11.468;2023-02-12T08:41:11;8.47;;;4.73;;
32639;SDS011;19049;52.524;11.468;2023-02-12T08:43:48;7.07;;;4.60;;
32639;SDS011;19049;52.524;11.468;2023-02-12T08:46:15;7.33;;;4.73;;
32639;SDS011;19049;52.524;11.468;2023-02-12T08:48:42;8.73;;;4.57;;
32639;SDS011;19049;52.524;11.468;2023-02-12T08:51:18;7.77;;;4.80;;
32639;SDS011;19049;52.524;11.468;2023-02-12T08:53:46;8.20;;;4.63;;
32639;SDS011;19049;52.524;11.468;2023-02-12T08:56:15;6.73;;;4.13;;
32639;SDS011;19049;52.524;11.468;2023-02-12T08:58:42;6.30;;;3.47;;
32639;SDS011;19049;52.524;11.468;2023-02-12T09:01:09;5.07;;;3.10;;
32639;SDS011;19049;52.524;11.468;2023-02-12T09:03:43;6.10;;;3.60;;
32639;SDS011;19049;52.524;11.468;2023-02-12T09:06:10;4.33;;;3.07;;
32639;SDS011;19049;52.524;11.468;2023-02-12T09:08:37;4.53;;;2.80;;
32639;SDS011;19049;52.524;11.468;2023-02-12T09:11:04;7.40;;;3.80;;
32639;SDS011;19049;52.524;11.468;2023-02-12T09:13:38;10.20;;;6.93;;
32639;SDS011;19049;52.524;11.468;2023-02-12T09:16:05;14.07;;;9.83;;
32639;SDS011;19049;52.524;11.468;2023-02-12T09:18:32;13.30;;;9.33;;
32639;SDS011;19049;52.524;11.468;2023-02-12T09:21:16;7.50;;;5.30;;
32639;SDS011;19049;52.524;11.468;2023-02-12T09:23:44;8.13;;;6.27;;
32639;SDS011;19049;52.524;11.468;2023-02-12T09:26:14;11.23;;;7.57;;
32639;SDS011;19049;52.524;11.468;2023-02-12T09:28:41;13.53;;;9.73;;
32639;SDS011;19049;52.524;11.468;2023-02-12T09:31:08;27.37;;;17.67;;
32639;SDS011;19049;52.524;11.468;2023-02-12T09:33:36;28.50;;;17.43;;
32639;SDS011;19049;52.524;11.468;2023-02-12T09:36:05;43.57;;;27.53;;
32639;SDS011;19049;52.524;11.468;2023-02-12T09:38:33;29.87;;;19.43;;
32639;SDS011;19049;52.524;11.468;2023-02-12T09:43:47;16.87;;;12.10;;
32639;SDS011;19049;52.524;11.468;2023-02-12T09:49:09;12.40;;;8.30;;
32639;SDS011;19049;52.524;11.468;2023-02-12T09:51:43;11.70;;;6.83;;
32639;SDS011;19049;52.524;11.468;2023-02-12T09:54:16;10.43;;;6.47;;
32639;SDS011;19049;52.524;11.468;2023-02-12T09:56:45;9.73;;;5.43;;
32639;SDS011;19049;52.524;11.468;2023-02-12T09:59:27;8.80;;;5.27;;
32639;SDS011;19049;52.524;11.468;2023-02-12T10:01:57;11.70;;;7.47;;
32639;SDS011;19049;52.524;11.468;2023-02-12T10:04:24;11.10;;;5.97;;
32639;SDS011;19049;52.524;11.468;2023-02-12T10:07:02;11.70;;;6.53;;
32639;SDS011;19049;52.524;11.468;2023-02-12T10:20:54;10.13;;;6.17;;
32639;SDS011;19049;52.524;11.468;2023-02-12T10:26:24;12.37;;;7.27;;
32639;SDS011;19049;52.524;11.468;2023-02-12T10:28:54;11.27;;;7.03;;
32639;SDS011;19049;52.524;11.468;2023-02-12T10:31:33;12.23;;;7.13;;
32639;SDS011;19049;52.524;11.468;2023-02-12T10:34:12;9.60;;;5.60;;
32639;SDS011;19049;52.524;11.468;2023-02-12T10:37:25;7.80;;;4.93;;
32639;SDS011;19049;52.524;11.468;2023-02-12T10:42:57;10.77;;;7.23;;
32639;SDS011;19049;52.524;11.468;2023-02-12T10:45:43;8.77;;;5.87;;
32639;SDS011;19049;52.524;11.468;2023-02-12T10:53:24;9.77;;;6.30;;
32639;SDS011;19049;52.524;11.468;2023-02-12T10:58:54;10.27;;;6.40;;
32639;SDS011;19049;52.524;11.468;2023-02-12T11:01:29;11.50;;;6.27;;
32639;SDS011;19049;52.524;11.468;2023-02-12T11:03:58;9.23;;;5.23;;
32639;SDS011;19049;52.524;11.468;2023-02-12T11:06:46;8.73;;;4.93;;
32639;SDS011;19049;52.524;11.468;2023-02-12T11:09:55;9.07;;;5.67;;
32639;SDS011;19049;52.524;11.468;2023-02-12T11:15:06;8.97;;;5.83;;
32639;SDS011;19049;52.524;11.468;2023-02-12T11:17:45;12.23;;;6.03;;
32639;SDS011;19049;52.524;11.468;2023-02-12T11:22:53;8.57;;;5.50;;
32639;SDS011;19049;52.524;11.468;2023-02-12T11:25:22;11.73;;;6.40;;
32639;SDS011;19049;52.524;11.468;2023-02-12T11:28:11;13.37;;;7.00;;
32639;SDS011;19049;52.524;11.468;2023-02-12T11:30:50;11.07;;;6.40;;
32639;SDS011;19049;52.524;11.468;2023-02-12T11:33:26;10.83;;;5.17;;
32639;SDS011;19049;52.524;11.468;2023-02-12T11:38:38;11.50;;;6.23;;
32639;SDS011;19049;52.524;11.468;2023-02-12T11:41:26;11.43;;;6.70;;
32639;SDS011;19049;52.524;11.468;2023-02-12T11:44:08;17.60;;;10.70;;
32639;SDS011;19049;52.524;11.468;2023-02-12T11:46:37;15.67;;;8.40;;
32639;SDS011;19049;52.524;11.468;2023-02-12T11:49:04;16.33;;;10.00;;
32639;SDS011;19049;52.524;11.468;2023-02-12T11:51:33;16.70;;;10.10;;
32639;SDS011;19049;52.524;11.468;2023-02-12T11:54:01;15.63;;;9.00;;
32639;SDS011;19049;52.524;11.468;2023-02-12T11:56:43;23.93;;;14.00;;
32639;SDS011;19049;52.524;11.468;2023-02-12T12:01:55;16.80;;;10.43;;
32639;SDS011;19049;52.524;11.468;2023-02-12T12:04:26;17.90;;;12.10;;
32639;SDS011;19049;52.524;11.468;2023-02-12T12:06:59;20.27;;;14.00;;
32639;SDS011;19049;52.524;11.468;2023-02-12T12:15:09;7.63;;;5.30;;
32639;SDS011;19049;52.524;11.468;2023-02-12T12:21:14;14.07;;;10.23;;
32639;SDS011;19049;52.524;11.468;2023-02-12T12:23:51;14.90;;;7.97;;
32639;SDS011;19049;52.524;11.468;2023-02-12T12:26:23;13.27;;;7.80;;
32639;SDS011;19049;52.524;11.468;2023-02-12T12:31:41;9.03;;;5.53;;
32639;SDS011;19049;52.524;11.468;2023-02-12T12:34:11;8.00;;;4.80;;
32639;SDS011;19049;52.524;11.468;2023-02-12T12:40:06;7.63;;;4.27;;
32639;SDS011;19049;52.524;11.468;2023-02-12T12:45:48;7.77;;;5.13;;
32639;SDS011;19049;52.524;11.468;2023-02-12T12:51:08;8.60;;;5.67;;
32639;SDS011;19049;52.524;11.468;2023-02-12T13:15:36;12.80;;;7.20;;
32639;SDS011;19049;52.524;11.468;2023-02-12T13:20:44;13.63;;;7.57;;
32639;SDS011;19049;52.524;11.468;2023-02-12T13:23:27;12.87;;;7.60;;
32639;SDS011;19049;52.524;11.468;2023-02-12T13:31:17;13.47;;;6.60;;
32639;SDS011;19049;52.524;11.468;2023-02-12T13:33:48;12.53;;;6.53;;
32639;SDS011;19049;52.524;11.468;2023-02-12T13:36:18;13.33;;;6.77;;
32639;SDS011;19049;52.524;11.468;2023-02-12T13:41:11;14.03;;;8.10;;
32639;SDS011;19049;52.524;11.468;2023-02-12T14:01:59;11.80;;;6.93;;
32639;SDS011;19049;52.524;11.468;2023-02-12T14:04:36;11.63;;;5.83;;
32639;SDS011;19049;52.524;11.468;2023-02-12T14:07:12;9.50;;;5.30;;
32639;SDS011;19049;52.524;11.468;2023-02-12T14:10:17;7.77;;;4.50;;
32639;SDS011;19049;52.524;11.468;2023-02-12T14:12:35;6.90;;;3.90;;
32639;SDS011;19049;52.524;11.468;2023-02-12T14:15:04;7.83;;;4.63;;
32639;SDS011;19049;52.524;11.468;2023-02-12T14:20:39;7.87;;;4.50;;
32639;SDS011;19049;52.524;11.468;2023-02-12T14:23:24;8.67;;;4.57;;
32639;SDS011;19049;52.524;11.468;2023-02-12T14:25:55;8.50;;;5.00;;
32639;SDS011;19049;52.524;11.468;2023-02-12T14:28:26;6.77;;;4.00;;
32639;SDS011;19049;52.524;11.468;2023-02-12T14:31:20;6.20;;;4.00;;
32639;SDS011;19049;52.524;11.468;2023-02-12T14:36:36;7.67;;;4.70;;
32639;SDS011;19049;52.524;11.468;2023-02-12T14:41:49;8.13;;;4.90;;
32639;SDS011;19049;52.524;11.468;2023-02-12T14:44:42;9.37;;;6.10;;
32639;SDS011;19049;52.524;11.468;2023-02-12T14:47:52;7.93;;;5.33;;
32639;SDS011;19049;52.524;11.468;2023-02-12T14:50:30;9.13;;;5.70;;
32639;SDS011;19049;52.524;11.468;2023-02-12T14:53:06;8.67;;;5.20;;
32639;SDS011;19049;52.524;11.468;2023-02-12T14:55:46;9.33;;;5.13;;
32639;SDS011;19049;52.524;11.468;2023-02-12T14:58:19;9.33;;;5.63;;
32639;SDS011;19049;52.524;11.468;2023-02-12T15:00:48;8.37;;;5.03;;
32639;SDS011;19049;52.524;11.468;2023-02-12T15:05:52;11.80;;;6.77;;
32639;SDS011;19049;52.524;11.468;2023-02-12T15:08:42;9.87;;;5.87;;
32639;SDS011;19049;52.524;11.468;2023-02-12T15:11:19;8.93;;;5.37;;
32639;SDS011;19049;52.524;11.468;2023-02-12T15:16:57;8.87;;;5.50;;
32639;SDS011;19049;52.524;11.468;2023-02-12T15:22:21;15.80;;;9.17;;
32639;SDS011;19049;52.524;11.468;2023-02-12T15:24:51;18.67;;;10.33;;
32639;SDS011;19049;52.524;11.468;2023-02-12T15:27:17;21.43;;;11.17;;
32639;SDS011;19049;52.524;11.468;2023-02-12T15:29:46;20.23;;;12.33;;
32639;SDS011;19049;52.524;11.468;2023-02-12T15:32:15;21.17;;;11.70;;
32639;SDS011;19049;52.524;11.468;2023-02-12T15:34:49;21.30;;;11.77;;
32639;SDS011;19049;52.524;11.468;2023-02-12T15:37:18;20.63;;;11.60;;
32639;SDS011;19049;52.524;11.468;2023-02-12T15:39:56;19.57;;;10.97;;
32639;SDS011;19049;52.524;11.468;2023-02-12T15:42:25;25.80;;;13.10;;
32639;SDS011;19049;52.524;11.468;2023-02-12T15:47:39;29.00;;;14.63;;
32639;SDS011;19049;52.524;11.468;2023-02-12T15:50:06;27.17;;;14.37;;
32639;SDS011;19049;52.524;11.468;2023-02-12T15:52:39;30.73;;;16.03;;
32639;SDS011;19049;52.524;11.468;2023-02-12T15:55:12;34.80;;;18.10;;
32639;SDS011;19049;52.524;11.468;2023-02-12T15:57:41;34.30;;;18.60;;
32639;SDS011;19049;52.524;11.468;2023-02-12T16:00:09;40.67;;;18.80;;
32639;SDS011;19049;52.524;11.468;2023-02-12T16:02:52;45.07;;;20.67;;
32639;SDS011;19049;52.524;11.468;2023-02-12T16:05:18;35.50;;;19.10;;
32639;SDS011;19049;52.524;11.468;2023-02-12T16:07:43;41.17;;;19.67;;
32639;SDS011;19049;52.524;11.468;2023-02-12T16:10:13;40.43;;;19.87;;
32639;SDS011;19049;52.524;11.468;2023-02-12T16:12:41;40.97;;;20.43;;
32639;SDS011;19049;52.524;11.468;2023-02-12T16:15:24;36.77;;;19.67;;
32639;SDS011;19049;52.524;11.468;2023-02-12T16:17:52;37.33;;;18.10;;
32639;SDS011;19049;52.524;11.468;2023-02-12T16:20:22;38.60;;;19.63;;
32639;SDS011;19049;52.524;11.468;2023-02-12T16:22:49;33.97;;;17.67;;
32639;SDS011;19049;52.524;11.468;2023-02-12T16:25:21;35.80;;;17.90;;
32639;SDS011;19049;52.524;11.468;2023-02-12T16:28:02;35.53;;;17.67;;
32639;SDS011;19049;52.524;11.468;2023-02-12T16:30:35;37.00;;;18.47;;
32639;SDS011;19049;52.524;11.468;2023-02-12T16:33:03;37.60;;;18.80;;
32639;SDS011;19049;52.524;11.468;2023-02-12T16:35:58;32.63;;;16.70;;
32639;SDS011;19049;52.524;11.468;2023-02-12T16:41:21;27.93;;;14.60;;
32639;SDS011;19049;52.524;11.468;2023-02-12T16:43:49;29.77;;;15.60;;
32639;SDS011;19049;52.524;11.468;2023-02-12T16:46:46;28.63;;;15.27;;
32639;SDS011;19049;52.524;11.468;2023-02-12T16:49:15;27.87;;;14.30;;
32639;SDS011;19049;52.524;11.468;2023-02-12T16:51:42;26.90;;;14.10;;
32639;SDS011;19049;52.524;11.468;2023-02-12T16:54:42;29.93;;;13.83;;
32639;SDS011;19049;52.524;11.468;2023-02-12T16:57:01;22.53;;;12.47;;
32639;SDS011;19049;52.524;11.468;2023-02-12T16:59:27;26.20;;;13.50;;
32639;SDS011;19049;52.524;11.468;2023-02-12T17:02:03;25.57;;;13.73;;
32639;SDS011;19049;52.524;11.468;2023-02-12T17:04:36;26.53;;;13.87;;
32639;SDS011;19049;52.524;11.468;2023-02-12T17:07:02;26.70;;;12.83;;
32639;SDS011;19049;52.524;11.468;2023-02-12T17:09:28;23.30;;;11.63;;
32639;SDS011;19049;52.524;11.468;2023-02-12T17:11:55;27.13;;;12.70;;
32639;SDS011;19049;52.524;11.468;2023-02-12T17:14:23;26.60;;;13.83;;
32639;SDS011;19049;52.524;11.468;2023-02-12T17:16:48;25.77;;;12.77;;
32639;SDS011;19049;52.524;11.468;2023-02-12T17:19:14;24.10;;;11.47;;
32639;SDS011;19049;52.524;11.468;2023-02-12T17:21:41;26.60;;;13.13;;
32639;SDS011;19049;52.524;11.468;2023-02-12T17:24:12;21.53;;;11.83;;
32639;SDS011;19049;52.524;11.468;2023-02-12T17:26:46;24.80;;;12.47;;
32639;SDS011;19049;52.524;11.468;2023-02-12T17:29:14;26.53;;;12.23;;
32639;SDS011;19049;52.524;11.468;2023-02-12T17:31:40;21.20;;;11.13;;
32639;SDS011;19049;52.524;11.468;2023-02-12T17:34:06;19.73;;;10.77;;
32639;SDS011;19049;52.524;11.468;2023-02-12T17:36:32;20.13;;;10.90;;
32639;SDS011;19049;52.524;11.468;2023-02-12T17:38:58;18.93;;;10.73;;
32639;SDS011;19049;52.524;11.468;2023-02-12T17:41:25;23.50;;;12.37;;
32639;SDS011;19049;52.524;11.468;2023-02-12T17:43:51;19.97;;;10.60;;
32639;SDS011;19049;52.524;11.468;2023-02-12T17:46:18;21.50;;;11.13;;
32639;SDS011;19049;52.524;11.468;2023-02-12T17:48:45;19.50;;;10.97;;
32639;SDS011;19049;52.524;11.468;2023-02-12T17:51:11;22.40;;;11.17;;
32639;SDS011;19049;52.524;11.468;2023-02-12T17:53:38;23.23;;;10.63;;
32639;SDS011;19049;52.524;11.468;2023-02-12T17:56:04;22.93;;;11.23;;